< < Back
Terminal Aerodrome Forecast


Current Version              Previous Versions:   1  2  3  4  5  6  7  8  9  

Terminal Aerodrome Forecast

454
FTUS42 KJAX 250536
TAFGNV
TAF
KGNV 250536Z 2506/2606 00000KT P6SM BKN200
     FM251300 19008G15KT P6SM SCT015 BKN150
     FM251600 22013G22KT P6SM SCT025 SCT150 BKN250
     FM251900 25016G25KT P6SM VCTS BKN030CB BKN120 OVC250=

Latest METAR

703
SAUS70 KWBC 252300
MTRGNV
METAR KGNV 252253Z 23012KT 10SM SCT033 SCT043 27/21 A2978 RMK AO2 SLP082
T02720206 $


USA.gov is the U.S. government's official web portal to all federal, state and local government web resources and services.